Time;durP1;ratioP1;P1;durP2;ratioP2;P2;SDS_P1;SDS_P2;PMS_P1;PMS_P2;Temp;Humidity;BMP_temperature;BMP_pressure;BME280_temperature;BME280_humidity;BME280_pressure;Samples;Min_cycle;Max_cycle;Signal;HPM_P1;HPM_P2
2023/10/11 00:00:49;;;;;;;6.85;6.15;;;;;;;-145.53;100.00;64590.91;6136754;28;110099;-62
2023/10/11 00:03:54;;;;;;;6.50;5.90;;;;;;;-145.53;100.00;64590.91;6118303;28;109283;-62
2023/10/11 00:06:57;;;;;;;5.90;5.30;;;;;;;-145.53;100.00;64590.91;6136789;28;109041;-61
2023/10/11 00:10:00;;;;;;;5.95;5.40;;;;;;;-145.53;100.00;64590.91;6135694;28;110479;-62
2023/10/11 00:13:04;;;;;;;6.00;4.70;;;;;;;-145.53;100.00;64590.91;6121854;28;110206;-61
2023/10/11 00:16:13;;;;;;;5.70;4.40;;;;;;;-145.53;100.00;64590.91;6106639;28;110081;-62
2023/10/11 00:19:17;;;;;;;4.40;4.00;;;;;;;-145.53;100.00;64590.91;6112412;28;109044;-62
2023/10/11 00:22:24;;;;;;;4.30;3.67;;;;;;;-145.53;100.00;64590.91;6112620;28;110949;-62
2023/10/11 00:25:28;;;;;;;5.00;3.40;;;;;;;-145.53;100.00;64590.91;6124956;28;110222;-61
2023/10/11 00:28:32;;;;;;;5.40;4.13;;;;;;;-145.53;100.00;64590.91;6141805;28;109172;-62
2023/10/11 00:31:35;;;;;;;6.22;5.10;;;;;;;-145.53;100.00;64590.91;6136011;28;109215;-61
2023/10/11 00:34:40;;;;;;;4.60;3.70;;;;;;;-145.53;100.00;64590.91;6122566;28;109387;-62
2023/10/11 00:37:44;;;;;;;4.10;3.50;;;;;;;-145.53;100.00;64590.91;6125452;28;110204;-62
2023/10/11 00:41:00;;;;;;;5.50;3.90;;;;;;;-145.53;100.00;64590.91;6136457;28;109208;-62
2023/10/11 00:44:04;;;;;;;7.72;6.80;;;;;;;-145.53;100.00;64590.91;6127146;28;109151;-61
2023/10/11 00:47:08;;;;;;;8.73;7.77;;;;;;;-145.53;100.00;64590.91;6134389;28;108759;-61
2023/10/11 00:50:14;;;;;;;9.35;8.45;;;;;;;-145.53;100.00;64590.91;6126061;28;109235;-61
2023/10/11 00:53:18;;;;;;;8.00;7.30;;;;;;;-145.53;100.00;64590.91;6127090;28;109104;-62
2023/10/11 00:56:22;;;;;;;9.80;8.90;;;;;;;-145.53;100.00;64590.91;6135440;28;109262;-61
2023/10/11 00:59:28;;;;;;;9.18;8.18;;;;;;;-145.53;100.00;64590.91;6125729;28;109149;-60
2023/10/11 01:02:32;;;;;;;9.47;8.57;;;;;;;-145.53;100.00;64590.91;6129096;28;109347;-62
2023/10/11 01:05:43;;;;;;;9.43;8.43;;;;;;;-145.53;100.00;64590.91;6133831;28;109437;-61
2023/10/11 01:08:48;;;;;;;10.23;8.70;;;;;;;-145.53;100.00;64590.91;6119479;28;109061;-61
2023/10/11 01:11:51;;;;;;;9.43;8.53;;;;;;;-145.53;100.00;64590.91;6101254;28;109708;-61
2023/10/11 01:15:01;;;;;;;9.40;8.55;;;;;;;-145.53;100.00;64590.91;6128804;28;109329;-61
2023/10/11 01:18:04;;;;;;;8.82;8.00;;;;;;;-145.53;100.00;64590.91;6125870;28;110004;-61
2023/10/11 01:21:09;;;;;;;9.30;8.40;;;;;;;-145.53;100.00;64590.91;6111944;28;109081;-61
2023/10/11 01:24:15;;;;;;;9.02;8.13;;;;;;;-145.53;100.00;64590.91;6126660;28;109163;-61
2023/10/11 01:27:18;;;;;;;7.70;6.90;;;;;;;-145.53;100.00;64590.91;6138989;28;109118;-62
2023/10/11 01:30:22;;;;;;;9.20;7.88;;;;;;;-145.53;100.00;64590.91;6135180;28;109157;-62
2023/10/11 01:33:25;;;;;;;7.87;7.07;;;;;;;-145.53;100.00;64590.91;6123711;28;110436;-61
2023/10/11 01:36:30;;;;;;;7.40;6.70;;;;;;;-145.53;100.00;64590.91;6129285;28;109089;-61
2023/10/11 01:39:33;;;;;;;5.90;5.30;;;;;;;-145.53;100.00;64590.91;6134626;28;108924;-60
2023/10/11 01:42:36;;;;;;;6.20;5.38;;;;;;;-145.53;100.00;64590.91;6130377;28;109112;-60
2023/10/11 01:45:40;;;;;;;6.70;5.30;;;;;;;-145.53;100.00;64590.91;6124463;28;109295;-60
2023/10/11 01:48:44;;;;;;;5.90;4.57;;;;;;;-145.53;100.00;64590.91;6132285;28;110139;-60
2023/10/11 01:51:49;;;;;;;5.70;4.88;;;;;;;-145.53;100.00;64590.91;6134096;28;109256;-60
2023/10/11 01:54:55;;;;;;;5.70;4.80;;;;;;;-145.53;100.00;64590.91;6131502;28;109356;-61
2023/10/11 01:57:58;;;;;;;6.23;5.63;;;;;;;-145.53;100.00;64590.91;6117640;28;109167;-60
2023/10/11 02:01:02;;;;;;;6.87;5.50;;;;;;;-145.53;100.00;64590.91;6110990;28;109331;-61
2023/10/11 02:04:11;;;;;;;7.13;6.10;;;;;;;-145.53;100.00;64590.91;6122831;28;109884;-60
2023/10/11 02:07:16;;;;;;;7.40;6.63;;;;;;;-145.53;100.00;64590.91;6126655;28;109161;-60
2023/10/11 02:10:26;;;;;;;6.90;6.30;;;;;;;-145.53;100.00;64590.91;6106273;28;109372;-61
2023/10/11 02:13:30;;;;;;;6.93;6.07;;;;;;;-145.53;100.00;64590.91;6128870;28;109465;-60
2023/10/11 02:16:33;;;;;;;6.33;5.70;;;;;;;-145.53;100.00;64590.91;6135022;28;109304;-60
2023/10/11 02:19:37;;;;;;;9.27;8.47;;;;;;;-145.53;100.00;64590.91;6124311;28;110619;-60
2023/10/11 02:22:44;;;;;;;8.00;7.20;;;;;;;-145.53;100.00;64590.91;6128545;28;110707;-60
2023/10/11 02:25:48;;;;;;;8.43;7.72;;;;;;;-145.53;100.00;64590.91;6119251;28;110183;-60
2023/10/11 02:28:51;;;;;;;7.97;7.18;;;;;;;-145.53;100.00;64590.91;6134192;28;109355;-60
2023/10/11 02:31:57;;;;;;;8.57;7.78;;;;;;;-145.53;100.00;64590.91;6121397;28;109261;-61
2023/10/11 02:35:06;;;;;;;8.90;8.10;;;;;;;-145.53;100.00;64590.91;6134372;28;109061;-62
2023/10/11 02:38:10;;;;;;;9.60;8.60;;;;;;;-145.53;100.00;64590.91;6127304;28;109127;-60
2023/10/11 02:41:14;;;;;;;8.10;7.40;;;;;;;-145.53;100.00;64590.91;6115629;28;109124;-60
2023/10/11 02:44:22;;;;;;;8.68;7.88;;;;;;;-145.53;100.00;64590.91;6116277;28;109473;-59
2023/10/11 02:47:25;;;;;;;9.17;8.27;;;;;;;-145.53;100.00;64590.91;6133058;28;109034;-59
2023/10/11 02:50:36;;;;;;;10.90;9.90;;;;;;;-145.53;100.00;64590.91;6135491;28;109431;-61
2023/10/11 02:53:43;;;;;;;10.45;9.38;;;;;;;-145.53;100.00;64590.91;6116852;28;109978;-60
2023/10/11 02:56:52;;;;;;;15.83;14.43;;;;;;;-145.53;100.00;64590.91;6119508;28;109074;-59
2023/10/11 02:59:56;;;;;;;16.73;15.27;;;;;;;-145.53;100.00;64590.91;6118580;28;109431;-59
2023/10/11 03:03:00;;;;;;;13.70;12.50;;;;;;;-145.53;100.00;64590.91;6132051;28;109029;-60
2023/10/11 03:06:07;;;;;;;13.73;12.40;;;;;;;-145.53;100.00;64590.91;6121506;28;109271;-60
2023/10/11 03:09:12;;;;;;;16.33;14.82;;;;;;;-145.53;100.00;64590.91;6136135;28;109261;-60
2023/10/11 03:12:19;;;;;;;15.60;14.20;;;;;;;-145.53;100.00;64590.91;6135911;28;109037;-60
2023/10/11 03:15:25;;;;;;;14.93;13.53;;;;;;;-145.53;100.00;64590.91;6114191;28;109171;-60
2023/10/11 03:18:31;;;;;;;13.85;12.63;;;;;;;-145.53;100.00;64590.91;6133082;28;110101;-60
2023/10/11 03:21:36;;;;;;;12.27;11.10;;;;;;;-145.53;100.00;64590.91;6138291;28;111160;-64
2023/10/11 03:24:41;;;;;;;13.65;12.25;;;;;;;-145.53;100.00;64590.91;6126686;28;109080;-64
2023/10/11 03:27:49;;;;;;;16.27;14.77;;;;;;;-145.53;100.00;64590.91;6143599;28;109979;-63
2023/10/11 03:30:52;;;;;;;21.10;19.30;;;;;;;-145.53;100.00;64590.91;6135718;28;109345;-63
2023/10/11 03:33:57;;;;;;;26.58;24.38;;;;;;;-145.53;100.00;64590.91;6142476;28;109114;-63
2023/10/11 03:37:00;;;;;;;30.60;27.50;;;;;;;-145.53;100.00;64590.91;6137114;28;109041;-63
2023/10/11 03:40:26;;;;;;;23.45;21.35;;;;;;;-145.53;100.00;64590.91;6110430;28;109023;-62
2023/10/11 03:43:32;;;;;;;20.40;18.67;;;;;;;-145.53;100.00;64590.91;6127416;28;109428;-64
2023/10/11 03:46:36;;;;;;;20.15;18.15;;;;;;;-145.53;100.00;64590.91;6113898;28;109381;-65
2023/10/11 03:49:50;;;;;;;20.00;18.13;;;;;;;-145.53;100.00;64590.91;6110029;28;109879;-63
2023/10/11 03:53:06;;;;;;;16.87;15.37;;;;;;;-145.53;100.00;64590.91;6135936;28;109297;-64
2023/10/11 03:56:11;;;;;;;14.90;13.60;;;;;;;-145.53;100.00;64590.91;6130239;28;109036;-63
2023/10/11 03:59:15;;;;;;;13.30;11.40;;;;;;;-145.53;100.00;64590.91;6131472;28;109647;-66
2023/10/11 04:02:19;;;;;;;14.47;12.13;;;;;;;-145.53;100.00;64590.91;6115468;28;109047;-65
2023/10/11 04:05:22;;;;;;;10.60;9.50;;;;;;;-145.53;100.00;64590.91;6123276;28;109141;-67
2023/10/11 04:08:26;;;;;;;10.98;9.98;;;;;;;-145.53;100.00;64590.91;6114464;28;109226;-65
2023/10/11 04:11:37;;;;;;;9.30;8.40;;;;;;;-145.53;100.00;64590.91;6113859;28;109222;-66
2023/10/11 04:14:44;;;;;;;15.10;11.40;;;;;;;-145.53;100.00;64590.91;6118762;28;109953;-64
2023/10/11 04:17:49;;;;;;;18.20;16.70;;;;;;;-145.53;100.00;64590.91;6137745;28;108854;-63
2023/10/11 04:20:59;;;;;;;12.40;11.20;;;;;;;-145.53;100.00;64590.91;6136412;28;109913;-63
2023/10/11 04:24:06;;;;;;;13.30;10.50;;;;;;;-145.53;100.00;64590.91;6118403;28;109331;-62
2023/10/11 04:30:41;;;;;;;9.17;7.60;;;;;;;-145.53;100.00;64590.91;6112238;28;110477;-61
2023/10/11 04:33:50;;;;;;;8.73;7.85;;;;;;;-145.53;100.00;64590.91;6120947;28;110414;-61
2023/10/11 04:36:55;;;;;;;8.23;7.47;;;;;;;-145.53;100.00;64590.91;6126737;28;110519;-62
2023/10/11 04:40:16;;;;;;;8.40;6.20;;;;;;;-145.53;100.00;64590.91;6119854;28;109256;-62
2023/10/11 04:43:24;;;;;;;8.20;5.30;;;;;;;-145.53;100.00;64590.91;6115671;28;109023;-61
2023/10/11 04:46:30;;;;;;;5.70;5.10;;;;;;;-145.53;100.00;64590.91;6129872;28;109250;-61
2023/10/11 04:49:34;;;;;;;5.88;4.50;;;;;;;-145.53;100.00;64590.91;6122854;28;109407;-62
2023/10/11 04:52:37;;;;;;;4.65;3.90;;;;;;;-145.53;100.00;64590.91;6112770;28;109079;-62
2023/10/11 04:55:46;;;;;;;4.90;4.15;;;;;;;-145.53;100.00;64590.91;6112726;28;110028;-64
2023/10/11 04:58:54;;;;;;;5.20;3.90;;;;;;;-145.53;100.00;64590.91;6101731;28;112034;-62
2023/10/11 05:02:04;;;;;;;4.78;3.70;;;;;;;-145.53;100.00;64590.91;6112667;28;109078;-62
2023/10/11 05:05:18;;;;;;;4.80;3.53;;;;;;;-145.53;100.00;64590.91;6113027;28;109008;-62
2023/10/11 05:08:23;;;;;;;5.45;3.90;;;;;;;-145.53;100.00;64590.91;6114419;28;109176;-62
2023/10/11 05:11:36;;;;;;;6.03;3.80;;;;;;;-145.53;100.00;64590.91;6126584;28;108887;-61
2023/10/11 05:14:56;;;;;;;6.40;4.40;;;;;;;-145.53;100.00;64590.91;6122875;28;108789;-62
2023/10/11 05:18:00;;;;;;;6.53;4.30;;;;;;;-145.53;100.00;64590.91;6112137;28;108553;-61
2023/10/11 05:21:14;;;;;;;5.50;3.90;;;;;;;-145.53;100.00;64590.91;6125026;28;109484;-60
2023/10/11 05:24:30;;;;;;;5.63;4.20;;;;;;;-145.53;100.00;64590.91;6127106;28;109084;-61
2023/10/11 05:27:37;;;;;;;5.80;3.90;;;;;;;-145.53;100.00;64590.91;6112111;28;108972;-61
2023/10/11 05:30:44;;;;;;;6.10;4.10;;;;;;;-145.53;100.00;64590.91;6117593;28;109038;-61
2023/10/11 05:34:29;;;;;;;5.63;3.90;;;;;;;-145.53;100.00;64590.91;6121816;28;108783;-60
2023/10/11 05:50:55;;;;;;;4.95;3.60;;;;;;;-145.53;100.00;64590.91;6135593;28;109167;-61
2023/10/11 05:54:04;;;;;;;7.27;3.87;;;;;;;-145.53;100.00;64590.91;6132244;28;109334;-61
2023/10/11 05:57:07;;;;;;;7.22;3.63;;;;;;;-145.53;100.00;64590.91;6129904;28;109702;-60
2023/10/11 06:00:22;;;;;;;4.60;3.60;;;;;;;-145.53;100.00;64590.91;6135150;28;110192;-60
2023/10/11 06:03:28;;;;;;;6.43;3.65;;;;;;;-145.53;100.00;64590.91;6136130;28;109806;-61
2023/10/11 06:06:38;;;;;;;6.80;3.80;;;;;;;-145.53;100.00;64590.91;6099606;28;109574;-61
2023/10/11 06:09:45;;;;;;;6.60;3.93;;;;;;;-145.53;100.00;64590.91;6121210;28;109225;-61
2023/10/11 06:12:49;;;;;;;8.07;4.10;;;;;;;-145.53;100.00;64590.91;6135328;28;109008;-61
2023/10/11 06:16:02;;;;;;;6.43;4.40;;;;;;;-145.53;100.00;64590.91;6134587;28;109419;-63
2023/10/11 06:19:19;;;;;;;7.40;4.30;;;;;;;-145.53;100.00;64590.91;6123461;28;109295;-61
2023/10/11 06:22:28;;;;;;;5.00;3.80;;;;;;;-145.53;100.00;64590.91;6135066;28;108841;-62
2023/10/11 06:29:02;;;;;;;7.13;3.70;;;;;;;-145.53;100.00;64590.91;6106606;28;110199;-61
2023/10/11 06:32:11;;;;;;;6.00;3.70;;;;;;;-145.53;100.00;64590.91;6138809;28;109155;-60
2023/10/11 06:35:24;;;;;;;5.40;3.90;;;;;;;-145.53;100.00;64590.91;6128893;28;109206;-61
2023/10/11 06:38:37;;;;;;;6.28;3.72;;;;;;;-145.53;100.00;64590.91;6114993;28;108872;-60
2023/10/11 06:41:50;;;;;;;5.80;3.83;;;;;;;-145.53;100.00;64590.91;6128695;28;109978;-61
2023/10/11 06:44:57;;;;;;;4.67;3.37;;;;;;;-145.53;100.00;64590.91;6130115;28;110074;-61
2023/10/11 06:48:06;;;;;;;6.03;3.37;;;;;;;-145.53;100.00;64590.91;6115328;28;109253;-61
2023/10/11 06:51:13;;;;;;;5.43;3.38;;;;;;;-145.53;100.00;64590.91;6110664;28;110217;-61
2023/10/11 06:54:17;;;;;;;6.47;3.70;;;;;;;-145.53;100.00;64590.91;6114663;28;110723;-62
2023/10/11 06:57:24;;;;;;;5.50;4.53;;;;;;;-145.53;100.00;64590.91;6139443;28;109246;-62
2023/10/11 07:00:28;;;;;;;7.33;4.47;;;;;;;-145.53;100.00;64590.91;6138885;28;108798;-62
2023/10/11 07:03:38;;;;;;;5.63;4.00;;;;;;;-145.53;100.00;64590.91;6131402;28;108990;-61
2023/10/11 07:06:43;;;;;;;6.80;4.60;;;;;;;-145.53;100.00;64590.91;6116751;28;109082;-61
2023/10/11 07:09:56;;;;;;;5.77;3.77;;;;;;;-145.53;100.00;64590.91;6114389;28;109184;-61
2023/10/11 07:13:07;;;;;;;4.40;3.65;;;;;;;-145.53;100.00;64590.91;6115218;28;109506;-61
2023/10/11 07:16:11;;;;;;;4.50;3.80;;;;;;;-145.53;100.00;64590.91;6104584;28;109200;-62
2023/10/11 07:19:15;;;;;;;5.57;4.13;;;;;;;-145.53;100.00;64590.91;6114978;28;109514;-60
2023/10/11 07:22:25;;;;;;;5.60;3.57;;;;;;;-145.53;100.00;64590.91;6114259;28;110062;-63
2023/10/11 07:25:37;;;;;;;4.75;4.20;;;;;;;-145.53;100.00;64590.91;6109040;28;109190;-61
2023/10/11 07:28:41;;;;;;;4.80;4.20;;;;;;;-145.53;100.00;64590.91;6113392;28;109102;-61
2023/10/11 07:31:50;;;;;;;5.13;4.20;;;;;;;-145.53;100.00;64590.91;6136536;28;109585;-59
2023/10/11 07:34:54;;;;;;;5.00;4.20;;;;;;;-145.53;100.00;64590.91;6131562;28;109381;-60
2023/10/11 07:38:00;;;;;;;5.40;3.97;;;;;;;-145.53;100.00;64590.91;6103438;28;109651;-60
2023/10/11 07:41:05;;;;;;;4.67;4.10;;;;;;;-145.53;100.00;64590.91;6114328;28;109463;-60
2023/10/11 07:44:10;;;;;;;6.38;4.40;;;;;;;-145.53;100.00;64590.91;6114890;28;109152;-59
2023/10/11 07:47:15;;;;;;;4.67;4.20;;;;;;;-145.53;100.00;64590.91;6115057;28;109784;-59
2023/10/11 07:50:22;;;;;;;4.77;3.80;;;;;;;-145.53;100.00;64590.91;6113775;28;109068;-59
2023/10/11 07:53:27;;;;;;;5.27;4.70;;;;;;;-145.53;100.00;64590.91;6137946;28;109093;-59
2023/10/11 07:56:35;;;;;;;6.00;5.50;;;;;;;-145.53;100.00;64590.91;6119982;28;109526;-59
2023/10/11 07:59:39;;;;;;;6.43;5.82;;;;;;;-145.53;100.00;64590.91;6107813;28;109206;-63
2023/10/11 08:02:43;;;;;;;6.70;6.00;;;;;;;-145.53;100.00;64590.91;6137437;28;108946;-59
2023/10/11 08:05:50;;;;;;;6.30;5.70;;;;;;;-145.53;100.00;64590.91;6125833;28;109038;-60
2023/10/11 08:08:59;;;;;;;6.88;5.60;;;;;;;-145.53;100.00;64590.91;6113594;28;108965;-60
2023/10/11 08:12:07;;;;;;;6.70;6.10;;;;;;;-145.53;100.00;64590.91;6125989;28;109759;-60
2023/10/11 08:15:11;;;;;;;6.65;6.05;;;;;;;-145.53;100.00;64590.91;6131420;28;109152;-59
2023/10/11 08:18:16;;;;;;;7.10;6.38;;;;;;;-145.53;100.00;64590.91;6114319;28;109202;-60
2023/10/11 08:21:19;;;;;;;6.90;6.30;;;;;;;-145.53;100.00;64590.91;6113486;28;109112;-60
2023/10/11 08:24:27;;;;;;;7.17;6.47;;;;;;;-145.53;100.00;64590.91;6102661;28;108817;-60
2023/10/11 08:27:31;;;;;;;7.00;6.40;;;;;;;-145.53;100.00;64590.91;6113588;28;109064;-60
2023/10/11 08:30:38;;;;;;;7.20;6.50;;;;;;;-145.53;100.00;64590.91;6113516;28;109287;-59
2023/10/11 08:33:41;;;;;;;7.30;6.60;;;;;;;-145.53;100.00;64590.91;6113167;28;109313;-60
2023/10/11 08:36:45;;;;;;;7.28;6.50;;;;;;;-145.53;100.00;64590.91;6121324;28;109066;-60
2023/10/11 08:39:54;;;;;;;6.80;6.10;;;;;;;-145.53;100.00;64590.91;6115568;28;109641;-59
2023/10/11 08:43:00;;;;;;;7.05;6.35;;;;;;;-145.53;100.00;64590.91;6137169;28;109027;-61
2023/10/11 08:46:05;;;;;;;7.60;6.50;;;;;;;-145.53;100.00;64590.91;6114385;28;109113;-61
2023/10/11 08:49:09;;;;;;;6.40;5.80;;;;;;;-145.53;100.00;64590.91;6112261;28;110001;-61
2023/10/11 08:52:12;;;;;;;6.65;5.82;;;;;;;-145.53;100.00;64590.91;6112271;28;109156;-61
2023/10/11 08:55:19;;;;;;;6.50;5.50;;;;;;;-145.53;100.00;64590.91;6111723;28;110818;-62
2023/10/11 08:58:27;;;;;;;6.10;5.60;;;;;;;-145.53;100.00;64590.91;6101429;28;109048;-61
2023/10/11 09:01:36;;;;;;;6.47;5.70;;;;;;;-145.53;100.00;64590.91;6112430;28;109434;-62
2023/10/11 09:04:56;;;;;;;6.07;5.45;;;;;;;-145.53;100.00;64590.91;6132539;28;109197;-61
2023/10/11 09:08:02;;;;;;;6.13;5.63;;;;;;;-145.53;100.00;64590.91;6102432;28;109102;-62
2023/10/11 09:11:15;;;;;;;5.43;4.93;;;;;;;-145.53;100.00;64590.91;6122742;28;109457;-62
2023/10/11 09:14:22;;;;;;;5.88;5.32;;;;;;;-145.53;100.00;64590.91;6136274;28;109160;-61
2023/10/11 09:17:27;;;;;;;5.68;5.18;;;;;;;-145.53;100.00;64590.91;6135982;28;109041;-62
2023/10/11 09:20:40;;;;;;;6.30;5.30;;;;;;;-145.53;100.00;64590.91;6125593;28;109384;-62
2023/10/11 09:23:47;;;;;;;5.88;5.38;;;;;;;-145.53;100.00;64590.91;6135928;28;108969;-62
2023/10/11 09:27:12;;;;;;;5.70;5.20;;;;;;;-145.53;100.00;64590.91;6135180;28;109528;-62
2023/10/11 09:30:19;;;;;;;5.80;5.20;;;;;;;-145.53;100.00;64590.91;6130648;28;109096;-62
2023/10/11 09:33:35;;;;;;;5.90;5.40;;;;;;;-145.53;100.00;64590.91;6130682;28;109102;-62
2023/10/11 09:36:40;;;;;;;6.20;5.50;;;;;;;-145.53;100.00;64590.91;6126558;28;109078;-62
2023/10/11 09:39:43;;;;;;;5.40;4.90;;;;;;;-145.53;100.00;64590.91;6136137;28;109286;-62
2023/10/11 09:42:50;;;;;;;5.90;5.30;;;;;;;-145.53;100.00;64590.91;6102245;28;108987;-62
2023/10/11 09:45:54;;;;;;;6.00;5.40;;;;;;;-145.53;100.00;64590.91;6111697;28;110157;-61
2023/10/11 09:48:59;;;;;;;6.00;5.40;;;;;;;-145.53;100.00;64590.91;6111433;28;109067;-61
2023/10/11 09:52:07;;;;;;;5.80;5.30;;;;;;;-145.53;100.00;64590.91;6111707;28;108691;-62
2023/10/11 09:55:17;;;;;;;6.10;5.50;;;;;;;-145.53;100.00;64590.91;6101891;28;111049;-62
2023/10/11 09:58:32;;;;;;;5.70;5.20;;;;;;;-145.53;100.00;64590.91;6110672;28;109167;-60
2023/10/11 10:01:44;;;;;;;5.97;5.37;;;;;;;-145.53;100.00;64590.91;6111154;28;108873;-60
2023/10/11 10:04:58;;;;;;;6.50;5.70;;;;;;;-145.53;100.00;64590.91;6120163;28;109035;-61
2023/10/11 10:08:14;;;;;;;6.03;5.43;;;;;;;-145.53;100.00;64590.91;6111591;28;109266;-61
2023/10/11 10:11:19;;;;;;;6.10;5.50;;;;;;;-145.53;100.00;64590.91;6121142;28;109038;-61
2023/10/11 10:14:30;;;;;;;5.88;5.10;;;;;;;-145.53;100.00;64590.91;6135669;28;109478;-61
2023/10/11 10:17:33;;;;;;;6.28;5.68;;;;;;;-145.53;100.00;64590.91;6105726;28;110053;-61
2023/10/11 10:20:44;;;;;;;5.60;5.00;;;;;;;-145.53;100.00;64590.91;6115687;28;109121;-61
2023/10/11 10:23:47;;;;;;;5.80;5.30;;;;;;;-145.53;100.00;64590.91;6136000;28;113423;-60
2023/10/11 10:26:52;;;;;;;5.50;5.00;;;;;;;-145.53;100.00;64590.91;6117414;28;109138;-60
2023/10/11 10:29:59;;;;;;;5.80;5.07;;;;;;;-145.53;100.00;64590.91;6105175;28;109248;-60
2023/10/11 10:33:22;;;;;;;5.53;5.00;;;;;;;-145.53;100.00;64590.91;6134507;28;110056;-60
2023/10/11 10:36:37;;;;;;;5.53;5.03;;;;;;;-145.53;100.00;64590.91;6138016;28;109098;-61
2023/10/11 10:40:26;;;;;;;5.82;5.22;;;;;;;-145.53;100.00;64590.91;6100773;28;110573;-60
2023/10/11 10:43:31;;;;;;;5.22;4.72;;;;;;;-145.53;100.00;64590.91;6108581;28;108568;-61
2023/10/11 10:46:37;;;;;;;5.50;5.10;;;;;;;-145.53;100.00;64590.91;6120809;28;109356;-60
2023/10/11 10:49:42;;;;;;;5.80;5.30;;;;;;;-145.53;100.00;64590.91;6130242;28;109253;-61
2023/10/11 10:52:53;;;;;;;5.30;4.80;;;;;;;-145.53;100.00;64590.91;6129549;28;111316;-62
2023/10/11 10:55:58;;;;;;;5.32;4.82;;;;;;;-145.53;100.00;64590.91;6130157;28;109169;-61
2023/10/11 10:59:04;;;;;;;5.60;5.10;;;;;;;-145.53;100.00;64590.91;6110691;28;109123;-61
2023/10/11 11:02:12;;;;;;;5.80;5.30;;;;;;;-145.53;100.00;64590.91;6099964;28;110091;-61
2023/10/11 11:05:15;;;;;;;5.23;4.73;;;;;;;-145.53;100.00;64590.91;6122801;28;109019;-61
2023/10/11 11:08:24;;;;;;;4.50;4.10;;;;;;;-145.53;100.00;64590.91;6134444;28;111014;-61
2023/10/11 11:11:31;;;;;;;4.73;4.33;;;;;;;-145.53;100.00;64590.91;6127762;28;109227;-61
2023/10/11 11:14:34;;;;;;;4.80;4.40;;;;;;;-145.53;100.00;64590.91;6104716;28;112224;-61
2023/10/11 11:17:48;;;;;;;4.95;4.55;;;;;;;-145.53;100.00;64590.91;6114276;28;109155;-61
2023/10/11 11:20:52;;;;;;;4.72;4.32;;;;;;;-145.53;100.00;64590.91;6116359;28;109017;-61
2023/10/11 11:23:55;;;;;;;5.10;4.60;;;;;;;-145.53;100.00;64590.91;6133365;28;110012;-61
2023/10/11 11:26:58;;;;;;;5.53;4.83;;;;;;;-145.53;100.00;64590.91;6132578;28;110164;-61
2023/10/11 11:30:17;;;;;;;5.30;4.90;;;;;;;-145.53;100.00;64590.91;6137644;28;109145;-61
2023/10/11 11:33:29;;;;;;;5.60;4.90;;;;;;;-145.53;100.00;64590.91;6136594;28;109111;-61
2023/10/11 11:36:34;;;;;;;5.10;4.70;;;;;;;-145.53;100.00;64590.91;6133742;28;109057;-60
2023/10/11 11:39:50;;;;;;;5.60;5.10;;;;;;;-145.53;100.00;64590.91;6113717;28;109301;-61
2023/10/11 11:42:53;;;;;;;5.30;4.80;;;;;;;-145.53;100.00;64590.91;6113497;28;109295;-62
2023/10/11 11:46:01;;;;;;;5.57;5.07;;;;;;;-145.53;100.00;64590.91;6113575;28;109321;-62
2023/10/11 11:49:09;;;;;;;6.53;5.93;;;;;;;-145.53;100.00;64590.91;6103787;28;109153;-62
2023/10/11 11:52:16;;;;;;;6.27;5.70;;;;;;;-145.53;100.00;64590.91;6124996;28;110218;-62
2023/10/11 11:55:22;;;;;;;6.60;6.00;;;;;;;-145.53;100.00;64590.91;6137934;28;109887;-62
2023/10/11 11:58:26;;;;;;;6.88;6.28;;;;;;;-145.53;100.00;64590.91;6105367;28;109018;-60
2023/10/11 12:01:29;;;;;;;6.60;5.90;;;;;;;-145.53;100.00;64590.91;6112867;28;109207;-62
2023/10/11 12:04:36;;;;;;;6.57;5.88;;;;;;;-145.53;100.00;64590.91;6117219;28;111169;-61
2023/10/11 12:07:39;;;;;;;5.72;5.22;;;;;;;-145.53;100.00;64590.91;6136765;28;109247;-61
2023/10/11 12:10:47;;;;;;;6.10;5.00;;;;;;;-145.53;100.00;64590.91;6126590;28;111575;-61
2023/10/11 12:13:50;;;;;;;5.53;5.03;;;;;;;-145.53;100.00;64590.91;6136711;28;109300;-63
2023/10/11 12:16:55;;;;;;;5.60;5.10;;;;;;;-145.53;100.00;64590.91;6136695;28;110982;-62
2023/10/11 12:19:59;;;;;;;5.60;5.10;;;;;;;-145.53;100.00;64590.91;6136962;28;112206;-63
2023/10/11 12:23:08;;;;;;;5.38;4.93;;;;;;;-145.53;100.00;64590.91;6108528;28;110175;-62
2023/10/11 12:26:11;;;;;;;5.37;4.83;;;;;;;-145.53;100.00;64590.91;6112595;28;109073;-62
2023/10/11 12:29:14;;;;;;;4.50;4.10;;;;;;;-145.53;100.00;64590.91;6112409;28;109298;-62
2023/10/11 12:32:17;;;;;;;5.45;4.50;;;;;;;-145.53;100.00;64590.91;6115591;28;109045;-62
2023/10/11 12:35:23;;;;;;;5.60;5.00;;;;;;;-145.53;100.00;64590.91;6133521;28;109010;-63
2023/10/11 12:38:26;;;;;;;5.60;5.00;;;;;;;-145.53;100.00;64590.91;6134692;28;108966;-62
2023/10/11 12:41:29;;;;;;;5.20;4.70;;;;;;;-145.53;100.00;64590.91;6134488;28;109089;-62
2023/10/11 12:44:32;;;;;;;5.10;4.60;;;;;;;-145.53;100.00;64590.91;6124649;28;109102;-62
2023/10/11 12:47:35;;;;;;;5.47;4.40;;;;;;;-145.53;100.00;64590.91;6133776;28;109632;-62
2023/10/11 12:50:40;;;;;;;10.45;6.25;;;;;;;-145.53;100.00;64590.91;6134845;28;109039;-70
2023/10/11 12:53:43;;;;;;;5.95;4.90;;;;;;;-145.53;100.00;64590.91;6135311;28;109160;-70
2023/10/11 12:56:47;;;;;;;4.60;4.00;;;;;;;-145.53;100.00;64590.91;6120902;28;110015;-70
2023/10/11 12:59:51;;;;;;;4.80;4.40;;;;;;;-145.53;100.00;64590.91;6140592;28;110224;-69
2023/10/11 13:02:58;;;;;;;5.30;4.10;;;;;;;-145.53;100.00;64590.91;6130565;28;109150;-70
2023/10/11 13:06:03;;;;;;;5.00;4.50;;;;;;;-145.53;100.00;64590.91;6134135;28;109640;-70
2023/10/11 13:09:15;;;;;;;4.80;4.10;;;;;;;-145.53;100.00;64590.91;6126105;28;109468;-69
2023/10/11 13:12:18;;;;;;;6.85;4.40;;;;;;;-145.53;100.00;64590.91;6132079;28;109783;-69
2023/10/11 13:15:22;;;;;;;4.68;3.90;;;;;;;-145.53;100.00;64590.91;6138415;28;109253;-70
2023/10/11 13:18:27;;;;;;;4.78;4.10;;;;;;;-145.53;100.00;64590.91;6125216;28;110728;-69
2023/10/11 13:21:33;;;;;;;7.10;5.90;;;;;;;-145.53;100.00;64590.91;6136334;28;109307;-69
2023/10/11 13:24:37;;;;;;;4.53;4.00;;;;;;;-145.53;100.00;64590.91;6131410;28;110251;-60
2023/10/11 13:27:42;;;;;;;4.85;3.47;;;;;;;-145.53;100.00;64590.91;6135736;28;109034;-60
2023/10/11 13:30:47;;;;;;;6.03;3.40;;;;;;;-145.53;100.00;64590.91;6123473;28;109315;-60
2023/10/11 13:33:53;;;;;;;4.27;3.87;;;;;;;-145.53;100.00;64590.91;6132520;28;109792;-60
2023/10/11 13:36:58;;;;;;;4.35;3.92;;;;;;;-145.53;100.00;64590.91;6143996;28;109524;-60
2023/10/11 13:40:05;;;;;;;3.88;3.53;;;;;;;-145.53;100.00;64590.91;6135516;28;109096;-60
2023/10/11 13:43:12;;;;;;;5.03;3.85;;;;;;;-145.53;100.00;64590.91;6136690;28;110249;-60
2023/10/11 13:46:17;;;;;;;6.05;2.90;;;;;;;-145.53;100.00;64590.91;6138098;28;109261;-61
2023/10/11 13:49:26;;;;;;;5.15;3.13;;;;;;;-145.53;100.00;64590.91;6132942;28;108992;-60
2023/10/11 13:52:36;;;;;;;5.85;3.45;;;;;;;-145.53;100.00;64590.91;6121523;28;109686;-61
2023/10/11 13:55:42;;;;;;;5.60;3.50;;;;;;;-145.53;100.00;64590.91;6131350;28;109290;-61
2023/10/11 13:58:45;;;;;;;4.40;3.77;;;;;;;-145.53;100.00;64590.91;6137650;28;109468;-61
2023/10/11 14:01:59;;;;;;;5.50;2.80;;;;;;;-145.53;100.00;64590.91;6134380;28;109083;-61
2023/10/11 14:05:15;;;;;;;3.57;2.60;;;;;;;-145.53;100.00;64590.91;6120981;28;109018;-61
2023/10/11 14:08:24;;;;;;;3.22;2.70;;;;;;;-145.53;100.00;64590.91;6133923;28;109199;-62
2023/10/11 14:11:30;;;;;;;5.03;2.77;;;;;;;-145.53;100.00;64590.91;6135699;28;109141;-61
2023/10/11 14:14:39;;;;;;;4.38;2.70;;;;;;;-145.53;100.00;64590.91;6131289;28;109287;-61
2023/10/11 14:17:44;;;;;;;3.30;2.67;;;;;;;-145.53;100.00;64590.91;6135624;28;109073;-61